Time;durP1;ratioP1;P1;durP2;ratioP2;P2;SDS_P1;SDS_P2;PMS_P1;PMS_P2;Temp;Humidity;BMP_temperature;BMP_pressure;BME280_temperature;BME280_humidity;BME280_pressure;Samples;Min_cycle;Max_cycle;Signal;HPM_P1;HPM_P2
2021/12/28 00:02:26;;;;;;;2.80;1.60;;;7.30;99.90;;;;;;5114017;27;20613;-80
2021/12/28 00:04:53;;;;;;;4.00;1.70;;;7.30;99.90;;;;;;5123914;27;20298;-80
2021/12/28 00:07:20;;;;;;;4.80;2.30;;;7.30;99.90;;;;;;5124114;27;20297;-80
2021/12/28 00:09:47;;;;;;;3.50;2.03;;;7.30;99.90;;;;;;5115999;27;20201;-80
2021/12/28 00:12:14;;;;;;;3.63;1.67;;;7.30;99.90;;;;;;5119856;27;20842;-80
2021/12/28 00:14:50;;;;;;;4.65;1.98;;;7.30;99.90;;;;;;5124446;27;20290;-80
2021/12/28 00:20:04;;;;;;;1.88;1.42;;;7.30;99.90;;;;;;5121635;27;20187;-80
2021/12/28 00:22:31;;;;;;;4.38;1.70;;;7.30;99.90;;;;;;5117434;27;20874;-80
2021/12/28 00:24:58;;;;;;;4.85;1.63;;;7.20;99.90;;;;;;5116427;27;20685;-80
2021/12/28 00:27:24;;;;;;;2.85;1.85;;;7.20;99.90;;;;;;5115445;27;20329;-80
2021/12/28 00:29:52;;;;;;;6.72;2.00;;;7.20;99.90;;;;;;5118601;27;20187;-80
2021/12/28 00:32:18;;;;;;;4.68;1.60;;;7.20;99.90;;;;;;5123255;27;20226;-80
2021/12/28 00:34:46;;;;;;;3.80;1.80;;;7.20;99.90;;;;;;5125998;27;20305;-80
2021/12/28 00:37:14;;;;;;;4.72;1.88;;;7.20;99.90;;;;;;5130581;27;20867;-80
2021/12/28 00:39:41;;;;;;;2.80;1.60;;;7.20;99.90;;;;;;5129014;27;20677;-80
2021/12/28 00:42:09;;;;;;;5.80;1.80;;;7.10;99.90;;;;;;5124860;27;20278;-80
2021/12/28 00:44:36;;;;;;;8.18;1.80;;;7.10;99.90;;;;;;5115484;27;20222;-80
2021/12/28 00:47:04;;;;;;;3.40;2.08;;;7.20;99.90;;;;;;5120493;27;20191;-81
2021/12/28 00:49:31;;;;;;;8.48;1.98;;;7.20;99.90;;;;;;5117939;27;20675;-81
2021/12/28 00:51:58;;;;;;;8.05;2.00;;;7.20;99.90;;;;;;5118845;27;20190;-80
2021/12/28 00:54:26;;;;;;;6.97;1.85;;;7.20;99.90;;;;;;5113699;27;20223;-81
2021/12/28 00:56:53;;;;;;;5.45;2.13;;;7.20;99.90;;;;;;5121281;27;20206;-80
2021/12/28 00:59:20;;;;;;;4.18;2.08;;;7.20;99.90;;;;;;5129209;27;20190;-80
2021/12/28 01:01:47;;;;;;;10.52;1.85;;;7.20;99.90;;;;;;5122830;27;20198;-80
2021/12/28 01:04:15;;;;;;;3.95;1.85;;;7.20;99.90;;;;;;5113572;27;20297;-80
2021/12/28 01:06:42;;;;;;;10.68;2.35;;;7.10;99.90;;;;;;5131708;27;20197;-81
2021/12/28 01:09:09;;;;;;;7.80;2.25;;;7.20;99.90;;;;;;5120455;27;20622;-79
2021/12/28 01:11:38;;;;;;;9.25;2.75;;;7.20;99.90;;;;;;5115109;27;20273;-80
2021/12/28 01:14:05;;;;;;;5.88;2.53;;;7.30;99.90;;;;;;5111934;28;20297;-80
2021/12/28 01:16:32;;;;;;;6.80;2.10;;;7.30;99.90;;;;;;5121337;27;20749;-80
2021/12/28 01:18:59;;;;;;;5.78;2.20;;;7.30;99.90;;;;;;5120368;27;20297;-80
2021/12/28 01:21:27;;;;;;;7.70;2.45;;;7.40;99.90;;;;;;5125325;27;20278;-80
2021/12/28 01:23:53;;;;;;;5.80;2.20;;;7.50;99.90;;;;;;5126505;27;20214;-80
2021/12/28 01:26:20;;;;;;;8.43;2.17;;;7.50;99.90;;;;;;5113776;27;20191;-80
2021/12/28 01:28:49;;;;;;;4.28;1.70;;;7.60;99.90;;;;;;5121235;27;20233;-80
2021/12/28 01:31:16;;;;;;;4.65;2.13;;;7.70;99.90;;;;;;5125630;27;20190;-80
2021/12/28 01:33:43;;;;;;;4.70;1.70;;;7.80;99.90;;;;;;5120989;27;20250;-80
2021/12/28 01:36:10;;;;;;;4.25;1.98;;;7.70;99.90;;;;;;5119156;27;20190;-80
2021/12/28 01:38:37;;;;;;;8.75;1.95;;;7.70;99.90;;;;;;5129233;27;20305;-80
2021/12/28 01:41:05;;;;;;;9.55;2.55;;;7.70;99.90;;;;;;5121788;27;20210;-80
2021/12/28 01:43:33;;;;;;;6.97;1.70;;;7.70;99.90;;;;;;5123136;27;20646;-80
2021/12/28 01:46:02;;;;;;;6.28;1.80;;;7.70;99.90;;;;;;5129236;27;20839;-80
2021/12/28 01:48:33;;;;;;;5.47;1.50;;;7.70;99.90;;;;;;5116848;27;20218;-80
2021/12/28 01:51:02;;;;;;;6.63;2.38;;;7.70;99.90;;;;;;5120700;27;20277;-81
2021/12/28 01:53:31;;;;;;;5.43;1.60;;;7.80;99.90;;;;;;5121567;27;21994;-80
2021/12/28 01:56:01;;;;;;;4.82;1.98;;;7.80;99.90;;;;;;5114812;27;20203;-80
2021/12/28 01:58:28;;;;;;;8.23;1.75;;;7.80;99.90;;;;;;5122519;27;20211;-81
2021/12/28 02:00:57;;;;;;;5.72;1.50;;;7.90;99.90;;;;;;5127961;27;20205;-81
2021/12/28 02:03:27;;;;;;;5.32;2.15;;;8.00;99.90;;;;;;5129070;27;20239;-80
2021/12/28 02:05:55;;;;;;;6.60;1.85;;;8.00;99.90;;;;;;5117089;27;20344;-80
2021/12/28 02:08:22;;;;;;;5.75;2.10;;;8.00;99.90;;;;;;5116263;27;20300;-81
2021/12/28 02:10:51;;;;;;;5.35;2.00;;;8.00;99.90;;;;;;5115706;27;20566;-81
2021/12/28 02:13:19;;;;;;;7.68;1.95;;;8.00;99.90;;;;;;5113461;27;20257;-81
2021/12/28 02:15:47;;;;;;;7.18;1.90;;;8.00;99.90;;;;;;5124050;27;20277;-80
2021/12/28 02:18:16;;;;;;;5.43;1.60;;;7.90;99.90;;;;;;5114531;27;20215;-80
2021/12/28 02:20:46;;;;;;;3.88;1.70;;;7.90;99.90;;;;;;5119823;27;20820;-80
2021/12/28 02:23:13;;;;;;;3.28;2.10;;;7.90;99.90;;;;;;5114464;27;20243;-81
2021/12/28 02:25:42;;;;;;;4.00;1.63;;;7.80;99.90;;;;;;5124337;27;20887;-80
2021/12/28 02:28:10;;;;;;;5.07;1.90;;;7.70;99.90;;;;;;5122201;28;20211;-81
2021/12/28 02:30:40;;;;;;;7.03;2.15;;;7.70;99.90;;;;;;5121735;27;20278;-81
2021/12/28 02:33:07;;;;;;;3.80;1.70;;;7.60;99.90;;;;;;5118666;27;20295;-81
2021/12/28 02:35:35;;;;;;;3.13;1.83;;;7.60;99.90;;;;;;5119134;28;20226;-81
2021/12/28 02:38:05;;;;;;;3.47;1.80;;;7.50;99.90;;;;;;5121332;27;20216;-81
2021/12/28 02:40:33;;;;;;;6.60;1.63;;;7.50;99.90;;;;;;5118349;27;20191;-80
2021/12/28 02:43:02;;;;;;;4.38;2.15;;;7.40;99.90;;;;;;5117606;28;20193;-80
2021/12/28 02:45:32;;;;;;;5.65;2.45;;;7.30;99.90;;;;;;5118658;28;20198;-81
2021/12/28 02:48:00;;;;;;;5.75;1.83;;;7.30;99.90;;;;;;5126229;28;20656;-81
2021/12/28 02:50:32;;;;;;;5.90;1.83;;;7.20;99.90;;;;;;5122551;28;20253;-81
2021/12/28 02:52:59;;;;;;;5.43;2.03;;;7.20;99.90;;;;;;5110942;28;20898;-81
2021/12/28 02:55:30;;;;;;;3.10;1.95;;;7.10;99.90;;;;;;5111170;27;20223;-80
2021/12/28 02:57:59;;;;;;;7.93;2.40;;;7.10;99.90;;;;;;5116906;28;20624;-81
2021/12/28 03:00:33;;;;;;;8.55;2.80;;;7.10;99.90;;;;;;5111005;28;20218;-81
2021/12/28 03:03:04;;;;;;;3.60;1.92;;;7.10;99.90;;;;;;5118016;28;20202;-80
2021/12/28 03:05:31;;;;;;;6.90;2.38;;;7.10;99.90;;;;;;5092624;28;20610;-80
2021/12/28 03:07:58;;;;;;;8.82;2.90;;;7.10;99.90;;;;;;5119319;28;20214;-81
2021/12/28 03:10:26;;;;;;;5.32;2.13;;;7.10;99.90;;;;;;5118861;28;20194;-80
2021/12/28 03:12:53;;;;;;;4.30;1.92;;;7.10;99.90;;;;;;5118026;27;20195;-81
2021/12/28 03:15:21;;;;;;;5.13;2.20;;;7.10;99.90;;;;;;5121122;28;20279;-80
2021/12/28 03:17:49;;;;;;;5.28;2.17;;;7.20;99.90;;;;;;5111587;28;20264;-81
2021/12/28 03:20:18;;;;;;;4.03;1.83;;;7.20;99.90;;;;;;5122516;28;20274;-81
2021/12/28 03:22:46;;;;;;;5.20;2.20;;;7.20;99.90;;;;;;5122511;28;20263;-80
2021/12/28 03:25:13;;;;;;;5.53;2.05;;;7.30;99.90;;;;;;5114332;27;20743;-81
2021/12/28 03:27:43;;;;;;;6.32;2.00;;;7.30;99.90;;;;;;5123733;28;20260;-80
2021/12/28 03:30:13;;;;;;;6.50;2.50;;;7.30;99.90;;;;;;5123866;27;20218;-81
2021/12/28 03:32:41;;;;;;;6.78;2.40;;;7.30;99.90;;;;;;5131676;27;20202;-81
2021/12/28 03:35:11;;;;;;;2.75;1.88;;;7.40;99.90;;;;;;5127192;27;20229;-81
2021/12/28 03:37:39;;;;;;;8.68;2.22;;;7.40;99.90;;;;;;5118549;28;20294;-81
2021/12/28 03:40:08;;;;;;;4.78;2.15;;;7.30;99.90;;;;;;5110709;28;20201;-81
2021/12/28 03:42:36;;;;;;;4.93;1.85;;;7.40;99.90;;;;;;5119048;28;20254;-80
2021/12/28 03:45:05;;;;;;;3.28;1.83;;;7.40;99.90;;;;;;5122596;27;20191;-80
2021/12/28 03:47:32;;;;;;;3.92;2.15;;;7.40;99.90;;;;;;5118327;28;20699;-81
2021/12/28 03:49:59;;;;;;;7.13;2.08;;;7.40;99.90;;;;;;5111561;28;20635;-80
2021/12/28 03:52:26;;;;;;;6.82;1.88;;;7.40;99.90;;;;;;5118239;27;20194;-81
2021/12/28 03:54:53;;;;;;;5.30;1.70;;;7.50;99.90;;;;;;5116027;27;20235;-80
2021/12/28 03:57:20;;;;;;;5.03;2.05;;;7.50;99.90;;;;;;5118656;27;20260;-81
2021/12/28 03:59:47;;;;;;;5.30;1.70;;;7.40;99.90;;;;;;5127229;27;20201;-81
2021/12/28 04:02:16;;;;;;;7.15;2.15;;;7.40;99.90;;;;;;5131002;27;20288;-81
2021/12/28 04:04:42;;;;;;;9.23;2.20;;;7.50;99.90;;;;;;5126504;27;20676;-81
2021/12/28 04:07:13;;;;;;;6.20;2.25;;;7.50;99.90;;;;;;5123120;27;20712;-81
2021/12/28 04:09:58;;;;;;;5.88;2.30;;;7.40;99.90;;;;;;5126629;27;20198;-81
2021/12/28 04:12:25;;;;;;;4.68;1.90;;;7.40;99.90;;;;;;5117368;27;20199;-81
2021/12/28 04:14:52;;;;;;;4.18;1.95;;;7.40;99.90;;;;;;5130454;27;20250;-80
2021/12/28 04:17:21;;;;;;;6.70;2.55;;;7.40;99.90;;;;;;5122950;27;20275;-81
2021/12/28 04:19:48;;;;;;;5.03;2.00;;;7.50;99.90;;;;;;5124289;27;20657;-81
2021/12/28 04:22:15;;;;;;;7.55;2.60;;;7.40;99.90;;;;;;5121092;27;20282;-80
2021/12/28 04:24:42;;;;;;;6.88;2.22;;;7.40;99.90;;;;;;5122457;27;20255;-81
2021/12/28 04:27:09;;;;;;;3.85;1.90;;;7.40;99.90;;;;;;5124729;27;20577;-80
2021/12/28 04:29:36;;;;;;;4.38;1.88;;;7.40;99.90;;;;;;5123095;27;20281;-81
2021/12/28 04:32:04;;;;;;;4.18;1.80;;;7.40;99.90;;;;;;5130829;27;20222;-81
2021/12/28 04:34:32;;;;;;;5.80;2.33;;;7.40;99.90;;;;;;5127667;27;20218;-82
2021/12/28 04:36:59;;;;;;;6.00;1.95;;;7.30;99.90;;;;;;5126011;27;20203;-81
2021/12/28 04:39:26;;;;;;;5.90;2.03;;;7.30;99.90;;;;;;5143651;27;20208;-82
2021/12/28 04:41:53;;;;;;;5.70;1.70;;;7.30;99.90;;;;;;5153005;27;20214;-81
2021/12/28 04:44:24;;;;;;;5.53;2.30;;;7.20;99.90;;;;;;5139778;27;20191;-81
2021/12/28 04:46:52;;;;;;;8.70;2.67;;;7.20;99.90;;;;;;5131775;27;20218;-81
2021/12/28 04:49:20;;;;;;;6.72;2.67;;;7.20;99.90;;;;;;5125698;27;20191;-81
2021/12/28 04:51:49;;;;;;;7.72;2.25;;;7.20;99.90;;;;;;5157681;27;20178;-81
2021/12/28 04:54:17;;;;;;;9.13;2.00;;;7.20;99.90;;;;;;5155998;27;20223;-81
2021/12/28 04:56:45;;;;;;;3.35;1.75;;;7.10;99.90;;;;;;5146874;27;20206;-81
2021/12/28 04:59:13;;;;;;;4.90;1.90;;;7.10;99.90;;;;;;5143311;27;20573;-81
2021/12/28 05:01:40;;;;;;;4.53;1.80;;;7.10;99.90;;;;;;5134269;27;20963;-81
2021/12/28 05:04:08;;;;;;;7.50;1.95;;;7.00;99.90;;;;;;5114856;27;20649;-81
2021/12/28 05:06:36;;;;;;;6.90;2.13;;;7.00;99.90;;;;;;5122942;27;20225;-81
2021/12/28 05:09:06;;;;;;;5.18;1.83;;;7.00;99.90;;;;;;5130064;27;20289;-82
2021/12/28 05:11:34;;;;;;;5.80;2.05;;;7.00;99.90;;;;;;5099000;27;20226;-81
2021/12/28 05:14:02;;;;;;;9.32;2.10;;;7.00;99.90;;;;;;5133389;27;20676;-81
2021/12/28 05:16:30;;;;;;;5.25;1.90;;;7.00;99.90;;;;;;5108539;27;20211;-81
2021/12/28 05:18:58;;;;;;;2.95;1.92;;;6.90;99.90;;;;;;5118224;27;20190;-81
2021/12/28 05:21:25;;;;;;;6.47;2.20;;;6.90;99.90;;;;;;5121286;27;20697;-81
2021/12/28 05:23:52;;;;;;;4.25;2.00;;;6.90;99.90;;;;;;5123485;27;20649;-81
2021/12/28 05:26:21;;;;;;;4.40;1.75;;;7.00;99.90;;;;;;5131864;27;20224;-80
2021/12/28 05:28:48;;;;;;;6.38;2.40;;;6.90;99.90;;;;;;5132069;27;20571;-81
2021/12/28 05:31:15;;;;;;;7.07;2.38;;;6.90;99.90;;;;;;5115850;27;20199;-81
2021/12/28 05:33:42;;;;;;;5.60;2.20;;;6.90;99.90;;;;;;5112961;28;20195;-81
2021/12/28 05:36:10;;;;;;;3.83;2.03;;;6.90;99.90;;;;;;5121204;27;20253;-81
2021/12/28 05:38:37;;;;;;;6.60;2.35;;;6.90;99.90;;;;;;5131400;27;20378;-81
2021/12/28 05:41:06;;;;;;;7.25;2.28;;;6.90;99.90;;;;;;5119516;27;20637;-81
2021/12/28 05:43:34;;;;;;;6.80;2.03;;;6.90;99.90;;;;;;5120981;27;20195;-81
2021/12/28 05:46:01;;;;;;;4.68;2.33;;;6.90;99.90;;;;;;5125010;27;20201;-81
2021/12/28 05:48:28;;;;;;;8.02;2.00;;;6.90;99.90;;;;;;5117054;27;20198;-81
2021/12/28 05:50:56;;;;;;;5.07;2.58;;;6.90;99.90;;;;;;5122901;27;20190;-81
2021/12/28 05:53:23;;;;;;;4.72;1.80;;;6.90;99.90;;;;;;5122424;27;20277;-81
2021/12/28 05:55:50;;;;;;;7.32;2.40;;;6.90;99.90;;;;;;5111812;28;20550;-80
2021/12/28 05:58:17;;;;;;;7.45;2.60;;;6.80;99.90;;;;;;5121250;27;20190;-81
2021/12/28 06:00:46;;;;;;;3.78;2.20;;;6.90;99.90;;;;;;5109937;27;20240;-81
2021/12/28 06:03:14;;;;;;;5.40;2.75;;;6.90;99.90;;;;;;5117213;27;20557;-81
2021/12/28 06:05:41;;;;;;;6.15;2.40;;;6.90;99.90;;;;;;5115011;27;20262;-81
2021/12/28 06:08:08;;;;;;;5.38;2.22;;;6.90;99.90;;;;;;5126693;27;20241;-81
2021/12/28 06:10:35;;;;;;;5.18;2.55;;;7.00;99.90;;;;;;5114190;27;20195;-81
2021/12/28 06:13:03;;;;;;;4.07;2.33;;;7.00;99.90;;;;;;5111039;27;20225;-80
2021/12/28 06:15:29;;;;;;;2.92;2.10;;;7.00;99.90;;;;;;5114892;27;20218;-81
2021/12/28 06:17:58;;;;;;;4.80;1.90;;;7.10;99.90;;;;;;5119890;27;20210;-81
2021/12/28 06:20:25;;;;;;;5.07;2.35;;;7.10;99.90;;;;;;5115034;27;20194;-82
2021/12/28 06:22:52;;;;;;;7.00;2.40;;;7.10;99.90;;;;;;5117705;27;20221;-81
2021/12/28 06:25:19;;;;;;;4.20;2.30;;;7.10;99.90;;;;;;5120483;27;20282;-81
2021/12/28 06:27:46;;;;;;;4.72;3.00;;;7.10;99.90;;;;;;5114884;27;20215;-81
2021/12/28 06:30:14;;;;;;;5.55;2.30;;;7.10;99.90;;;;;;5121545;27;20290;-81
2021/12/28 06:32:41;;;;;;;6.85;2.20;;;7.10;99.90;;;;;;5115210;27;20226;-81
2021/12/28 06:35:11;;;;;;;4.22;2.00;;;7.10;99.90;;;;;;5114820;27;20230;-81
2021/12/28 06:37:38;;;;;;;4.20;2.53;;;7.10;99.90;;;;;;5113480;28;20711;-81
2021/12/28 06:40:07;;;;;;;4.60;2.45;;;7.20;99.90;;;;;;5111281;28;20278;-81
2021/12/28 06:42:34;;;;;;;6.35;2.72;;;7.20;99.90;;;;;;5121625;28;20187;-81
2021/12/28 06:45:01;;;;;;;8.23;2.25;;;7.10;99.90;;;;;;5115387;28;20226;-81
2021/12/28 06:47:28;;;;;;;3.97;2.38;;;7.10;99.90;;;;;;5117799;27;20219;-81
2021/12/28 06:49:55;;;;;;;3.78;2.67;;;7.20;99.90;;;;;;5124642;27;20277;-81
2021/12/28 06:52:24;;;;;;;3.45;2.22;;;7.20;99.90;;;;;;5116596;28;20190;-81
2021/12/28 06:54:50;;;;;;;3.47;2.63;;;7.20;99.90;;;;;;5111953;27;20282;-81
2021/12/28 06:57:17;;;;;;;5.93;3.13;;;7.20;99.90;;;;;;5114225;28;20210;-81
2021/12/28 06:59:45;;;;;;;3.72;3.08;;;7.10;99.90;;;;;;5113079;27;20191;-80
2021/12/28 07:02:14;;;;;;;5.38;2.85;;;7.10;99.90;;;;;;5116686;27;20728;-81
2021/12/28 07:04:41;;;;;;;4.75;2.40;;;7.10;99.90;;;;;;5124682;28;20194;-81
2021/12/28 07:07:09;;;;;;;3.65;2.05;;;7.20;99.90;;;;;;5120582;28;21177;-81
2021/12/28 07:09:37;;;;;;;6.72;1.95;;;7.10;99.90;;;;;;5128789;27;20281;-81
2021/12/28 07:12:05;;;;;;;2.15;1.73;;;7.20;99.90;;;;;;5121806;28;20189;-81
2021/12/28 07:14:32;;;;;;;2.55;1.45;;;7.30;99.90;;;;;;5117274;27;20234;-80
2021/12/28 07:17:00;;;;;;;4.35;1.50;;;7.30;99.90;;;;;;5119863;28;20250;-81
2021/12/28 07:19:27;;;;;;;2.13;1.40;;;7.40;99.90;;;;;;5119339;28;20251;-81
2021/12/28 07:21:55;;;;;;;2.22;1.17;;;7.50;99.90;;;;;;5129976;28;20193;-81
2021/12/28 07:24:22;;;;;;;1.15;1.05;;;7.60;99.90;;;;;;5113662;27;20651;-80
2021/12/28 07:26:50;;;;;;;1.65;1.23;;;7.60;99.90;;;;;;5128708;27;20623;-82
2021/12/28 07:29:18;;;;;;;2.35;1.10;;;7.70;99.90;;;;;;5124048;27;20278;-82
2021/12/28 07:31:45;;;;;;;1.00;0.90;;;7.80;99.90;;;;;;5118291;27;20269;-81
2021/12/28 07:34:12;;;;;;;2.05;1.10;;;7.90;99.90;;;;;;5124100;27;20193;-78
2021/12/28 07:36:39;;;;;;;4.03;1.40;;;8.00;99.90;;;;;;5115484;27;20223;-79
2021/12/28 07:39:06;;;;;;;1.30;0.95;;;8.10;99.90;;;;;;5129810;27;20241;-79
2021/12/28 07:41:33;;;;;;;1.30;1.02;;;8.20;99.90;;;;;;5106900;27;20203;-80
2021/12/28 07:44:03;;;;;;;0.82;0.82;;;8.30;99.90;;;;;;5117145;27;20279;-81
2021/12/28 07:46:30;;;;;;;1.10;0.90;;;8.40;99.90;;;;;;5120820;27;20218;-80
2021/12/28 07:48:57;;;;;;;0.80;0.80;;;8.50;99.90;;;;;;5116090;27;20246;-81
2021/12/28 07:51:24;;;;;;;1.02;0.93;;;8.50;99.90;;;;;;5109244;27;20207;-81
2021/12/28 07:53:51;;;;;;;2.65;0.82;;;8.60;99.90;;;;;;5112524;27;20607;-81
2021/12/28 07:56:18;;;;;;;1.15;0.80;;;8.70;99.90;;;;;;5112660;27;20320;-80
2021/12/28 07:58:45;;;;;;;1.52;0.80;;;8.70;99.90;;;;;;5116326;27;20192;-80
2021/12/28 08:01:13;;;;;;;1.35;0.60;;;8.70;99.90;;;;;;5125983;27;20271;-80
2021/12/28 08:03:40;;;;;;;1.00;0.88;;;8.80;99.90;;;;;;5122846;27;20222;-82
2021/12/28 08:06:07;;;;;;;1.20;0.70;;;8.80;99.90;;;;;;5126391;27;20215;-81
2021/12/28 08:08:34;;;;;;;1.13;0.80;;;8.90;99.90;;;;;;5110537;27;20214;-81
2021/12/28 08:11:01;;;;;;;0.70;0.60;;;8.80;99.90;;;;;;5109304;27;20781;-79
2021/12/28 08:13:28;;;;;;;1.20;0.90;;;8.80;99.90;;;;;;5112737;27;20208;-80
2021/12/28 08:15:56;;;;;;;1.90;0.80;;;8.80;99.90;;;;;;5115389;27;20679;-80
2021/12/28 08:18:24;;;;;;;1.00;0.90;;;8.90;99.90;;;;;;5117342;27;20197;-80
2021/12/28 08:20:51;;;;;;;0.85;0.77;;;9.00;99.90;;;;;;5114392;27;20199;-80
2021/12/28 08:23:18;;;;;;;1.48;0.70;;;9.00;99.90;;;;;;5115070;27;20218;-81
2021/12/28 08:25:45;;;;;;;1.05;0.70;;;9.00;99.90;;;;;;5119018;27;20225;-79
2021/12/28 08:28:13;;;;;;;0.80;0.70;;;9.00;99.90;;;;;;5119770;27;20195;-80
2021/12/28 08:30:40;;;;;;;1.10;0.70;;;9.00;99.90;;;;;;5115227;27;20290;-80
2021/12/28 08:33:08;;;;;;;2.25;0.70;;;9.00;99.90;;;;;;5115179;27;20192;-81
2021/12/28 08:35:40;;;;;;;1.48;0.90;;;9.00;99.90;;;;;;5118196;27;20247;-82
2021/12/28 08:38:09;;;;;;;0.90;0.60;;;9.00;99.90;;;;;;5117431;27;20215;-82
2021/12/28 08:40:36;;;;;;;1.48;0.80;;;9.00;99.90;;;;;;5116597;27;21023;-81
2021/12/28 08:43:03;;;;;;;1.05;0.77;;;9.00;99.90;;;;;;5117083;27;20285;-81
2021/12/28 08:45:31;;;;;;;1.35;0.60;;;9.10;99.90;;;;;;5114321;27;20217;-80
2021/12/28 08:47:58;;;;;;;1.13;0.63;;;9.10;99.90;;;;;;5112661;27;20200;-80
2021/12/28 08:50:25;;;;;;;0.90;0.60;;;9.10;99.90;;;;;;5109493;27;20207;-81
2021/12/28 08:52:53;;;;;;;0.90;0.52;;;9.10;99.90;;;;;;5116559;27;20192;-80
2021/12/28 08:55:22;;;;;;;0.80;0.60;;;9.20;99.90;;;;;;5112347;27;20192;-80
2021/12/28 08:57:49;;;;;;;0.70;0.55;;;9.20;99.90;;;;;;5112719;27;20399;-78
2021/12/28 09:00:21;;;;;;;0.90;0.70;;;9.20;99.90;;;;;;5110180;27;20203;-81
2021/12/28 09:02:48;;;;;;;0.70;0.50;;;9.30;99.90;;;;;;5116777;27;20267;-81
2021/12/28 09:05:15;;;;;;;0.60;0.50;;;9.30;99.90;;;;;;5109568;27;20260;-80
2021/12/28 09:07:43;;;;;;;0.90;0.60;;;9.30;99.90;;;;;;5110979;27;20212;-81
2021/12/28 09:10:11;;;;;;;0.60;0.50;;;9.30;99.90;;;;;;5118219;27;20205;-80
2021/12/28 09:12:39;;;;;;;1.63;0.60;;;9.40;99.90;;;;;;5113241;27;20205;-80
2021/12/28 09:15:08;;;;;;;2.20;0.60;;;9.40;99.90;;;;;;5109759;27;20197;-82
2021/12/28 09:17:35;;;;;;;0.70;0.50;;;9.40;99.90;;;;;;5110532;27;20225;-80
2021/12/28 09:20:05;;;;;;;0.63;0.50;;;9.40;99.90;;;;;;5115305;27;20203;-81
2021/12/28 09:22:32;;;;;;;1.13;0.70;;;9.40;99.90;;;;;;5114574;27;20187;-81
2021/12/28 09:24:59;;;;;;;0.80;0.52;;;9.40;99.90;;;;;;5108892;27;20196;-80
2021/12/28 09:27:27;;;;;;;1.55;0.60;;;9.50;99.90;;;;;;5114422;27;20203;-80
2021/12/28 09:29:54;;;;;;;1.88;0.77;;;9.60;99.90;;;;;;5108422;27;20762;-81
2021/12/28 09:32:22;;;;;;;0.60;0.50;;;9.60;99.90;;;;;;5115164;27;20683;-80
2021/12/28 09:34:51;;;;;;;1.48;0.60;;;9.70;99.90;;;;;;5111453;27;20201;-80
2021/12/28 09:37:20;;;;;;;2.15;0.73;;;9.80;99.90;;;;;;5109803;27;20251;-79
2021/12/28 09:39:47;;;;;;;1.02;0.60;;;9.90;99.90;;;;;;5115582;27;20252;-79
2021/12/28 09:42:16;;;;;;;1.13;0.70;;;9.90;99.90;;;;;;5114473;27;20278;-80
2021/12/28 09:44:47;;;;;;;1.50;0.50;;;9.90;99.90;;;;;;5114363;27;20197;-80
2021/12/28 09:47:15;;;;;;;1.25;0.70;;;9.90;99.90;;;;;;5113458;27;20650;-80
2021/12/28 09:49:43;;;;;;;0.80;0.50;;;9.90;99.90;;;;;;5115605;27;20209;-80
2021/12/28 09:52:10;;;;;;;1.23;0.60;;;9.80;99.90;;;;;;5116217;27;20278;-81
2021/12/28 09:54:37;;;;;;;1.50;0.60;;;10.00;99.90;;;;;;5122370;27;20223;-82
2021/12/28 09:57:05;;;;;;;0.80;0.70;;;10.00;99.90;;;;;;5121138;27;20248;-85
2021/12/28 09:59:33;;;;;;;0.75;0.50;;;10.10;99.90;;;;;;5122520;27;20274;-83
2021/12/28 10:02:08;;;;;;;1.10;0.50;;;10.20;99.90;;;;;;5119959;27;20196;-85
2021/12/28 10:04:36;;;;;;;0.70;0.60;;;10.30;99.90;;;;;;5122074;27;20188;-81
2021/12/28 10:07:28;;;;;;;0.60;0.60;;;10.30;99.90;;;;;;5120246;27;20220;-77
2021/12/28 10:09:56;;;;;;;0.80;0.60;;;10.40;99.90;;;;;;5109527;27;20663;-82
2021/12/28 10:12:28;;;;;;;0.75;0.50;;;10.40;99.90;;;;;;5114130;27;20188;-86
2021/12/28 10:14:56;;;;;;;0.93;0.57;;;10.40;99.90;;;;;;5092070;27;20204;-81
2021/12/28 10:17:27;;;;;;;0.75;0.60;;;10.40;99.90;;;;;;5113866;27;20224;-83
2021/12/28 10:19:56;;;;;;;0.68;0.60;;;10.40;99.90;;;;;;5101480;27;20196;-82
2021/12/28 10:22:32;;;;;;;0.70;0.50;;;10.40;99.90;;;;;;5118887;27;20622;-82
2021/12/28 10:25:02;;;;;;;0.50;0.50;;;10.50;99.90;;;;;;5110297;27;20371;-83
2021/12/28 10:27:31;;;;;;;0.93;0.60;;;10.50;99.90;;;;;;5114701;27;20188;-76
2021/12/28 10:30:07;;;;;;;0.60;0.50;;;10.70;99.90;;;;;;5113793;27;20287;-81
2021/12/28 10:32:36;;;;;;;0.60;0.40;;;10.90;99.90;;;;;;5117984;27;20200;-85
2021/12/28 10:35:07;;;;;;;0.60;0.55;;;11.00;99.90;;;;;;5111411;27;20214;-82
2021/12/28 10:37:38;;;;;;;0.70;0.50;;;11.10;99.90;;;;;;5116969;27;20225;-82
2021/12/28 10:40:10;;;;;;;0.85;0.50;;;11.20;99.90;;;;;;5112246;27;20710;-82
2021/12/28 10:42:56;;;;;;;0.73;0.60;;;11.20;99.90;;;;;;5118484;27;20204;-82
2021/12/28 10:45:25;;;;;;;1.00;0.70;;;11.20;99.90;;;;;;5110344;27;20704;-83
2021/12/28 10:47:56;;;;;;;0.75;0.60;;;11.20;99.90;;;;;;5116445;27;20208;-81
2021/12/28 10:50:35;;;;;;;0.50;0.50;;;11.20;99.90;;;;;;5115732;27;20195;-83
2021/12/28 10:53:11;;;;;;;0.60;0.50;;;11.40;99.90;;;;;;5116065;27;20194;-82
2021/12/28 10:55:39;;;;;;;0.70;0.60;;;11.50;99.90;;;;;;5122608;27;20313;-82
2021/12/28 10:58:07;;;;;;;0.70;0.50;;;11.80;99.90;;;;;;5114859;27;20223;-83
2021/12/28 11:00:38;;;;;;;0.60;0.50;;;11.90;99.90;;;;;;5119621;27;20242;-82
2021/12/28 11:03:26;;;;;;;0.70;0.52;;;11.80;99.90;;;;;;5123635;27;20205;-82
2021/12/28 11:05:55;;;;;;;0.70;0.50;;;11.80;99.90;;;;;;5124705;27;20217;-84
2021/12/28 11:08:24;;;;;;;1.08;0.60;;;11.80;99.90;;;;;;5130630;27;20196;-82
2021/12/28 11:10:55;;;;;;;0.57;0.50;;;11.60;99.90;;;;;;5123327;27;20819;-82
2021/12/28 11:13:24;;;;;;;0.60;0.50;;;11.40;99.90;;;;;;5123041;27;20205;-82
2021/12/28 11:15:51;;;;;;;0.70;0.60;;;11.20;99.90;;;;;;5139145;27;20209;-82
2021/12/28 11:18:23;;;;;;;0.60;0.52;;;11.10;99.90;;;;;;5142749;27;20265;-82
2021/12/28 11:20:56;;;;;;;0.60;0.50;;;11.20;99.90;;;;;;5144688;27;20180;-82
2021/12/28 11:23:25;;;;;;;0.65;0.57;;;11.50;99.90;;;;;;5132920;27;20187;-82
2021/12/28 11:26:10;;;;;;;1.00;0.90;;;11.70;99.90;;;;;;5128817;27;20222;-82
2021/12/28 11:28:38;;;;;;;0.98;0.70;;;11.60;99.90;;;;;;5115566;27;22008;-82
2021/12/28 11:31:17;;;;;;;0.70;0.50;;;11.40;99.90;;;;;;5148727;27;20203;-82
2021/12/28 11:33:53;;;;;;;0.60;0.60;;;11.40;99.90;;;;;;5146357;27;21025;-83
2021/12/28 11:36:24;;;;;;;1.00;0.60;;;11.30;99.90;;;;;;5147684;27;20205;-83
2021/12/28 11:38:54;;;;;;;0.70;0.50;;;11.30;99.90;;;;;;5140211;27;20198;-82
2021/12/28 11:41:25;;;;;;;0.90;0.63;;;11.30;99.90;;;;;;5131520;27;20277;-82
2021/12/28 11:43:54;;;;;;;0.60;0.50;;;11.30;99.90;;;;;;5130108;27;20207;-83
2021/12/28 11:46:21;;;;;;;0.70;0.60;;;11.40;99.90;;;;;;5113855;27;20248;-82
2021/12/28 11:48:50;;;;;;;0.60;0.50;;;11.50;99.90;;;;;;5120904;27;20198;-82
2021/12/28 11:51:20;;;;;;;1.40;0.57;;;11.70;99.90;;;;;;5119386;27;20225;-82
2021/12/28 11:53:48;;;;;;;0.70;0.60;;;11.80;99.90;;;;;;5119286;27;20222;-79
2021/12/28 11:56:18;;;;;;;0.82;0.70;;;11.80;99.90;;;;;;5123168;27;20238;-79
2021/12/28 11:58:51;;;;;;;1.20;0.75;;;11.80;99.90;;;;;;5117785;27;20197;-81
2021/12/28 12:01:58;;;;;;;1.05;0.50;;;11.80;99.90;;;;;;5115680;27;20205;-81
2021/12/28 12:04:50;;;;;;;0.60;0.52;;;11.70;99.90;;;;;;5113375;27;20205;-82
2021/12/28 12:07:31;;;;;;;0.70;0.57;;;11.60;99.90;;;;;;5114160;27;20549;-81
2021/12/28 12:10:20;;;;;;;0.90;0.60;;;11.50;99.90;;;;;;5123216;27;20221;-81
2021/12/28 12:13:20;;;;;;;0.95;0.73;;;11.40;99.90;;;;;;5122205;27;20202;-81
2021/12/28 12:15:51;;;;;;;0.60;0.60;;;11.40;99.90;;;;;;5120487;27;20213;-83
2021/12/28 12:18:22;;;;;;;0.80;0.60;;;11.40;99.90;;;;;;5117937;27;20229;-82
2021/12/28 12:20:56;;;;;;;0.80;0.80;;;11.50;99.90;;;;;;5119524;27;21618;-82
2021/12/28 12:23:28;;;;;;;1.33;0.80;;;11.50;99.90;;;;;;5121169;27;20605;-82
2021/12/28 12:26:04;;;;;;;0.80;0.70;;;11.60;99.90;;;;;;5119442;27;21561;-73
2021/12/28 12:28:41;;;;;;;1.30;0.68;;;11.50;99.90;;;;;;5115423;27;20201;-81
2021/12/28 12:31:10;;;;;;;1.00;0.80;;;11.50;99.90;;;;;;5118688;27;20195;-82
2021/12/28 12:33:40;;;;;;;0.70;0.60;;;11.50;99.90;;;;;;5104091;27;20298;-82
2021/12/28 12:36:17;;;;;;;1.00;0.70;;;11.50;99.90;;;;;;5120029;27;20222;-82
2021/12/28 12:38:45;;;;;;;1.00;0.60;;;11.50;99.90;;;;;;5114837;27;20520;-81
2021/12/28 12:41:18;;;;;;;0.98;0.70;;;11.50;99.90;;;;;;5110772;27;20194;-81
2021/12/28 12:43:51;;;;;;;1.20;0.80;;;11.50;99.90;;;;;;5122016;27;20233;-81
2021/12/28 12:46:38;;;;;;;0.60;0.55;;;11.30;99.90;;;;;;5121877;27;20666;-82
2021/12/28 12:49:24;;;;;;;0.70;0.70;;;11.10;99.90;;;;;;5114127;27;20198;-82
2021/12/28 12:52:00;;;;;;;0.93;0.70;;;11.10;99.90;;;;;;5121936;27;21368;-81
2021/12/28 12:54:30;;;;;;;0.70;0.65;;;10.90;99.90;;;;;;5119374;27;20222;-80
2021/12/28 12:57:06;;;;;;;0.70;0.70;;;10.90;99.90;;;;;;5112975;27;20253;-80
2021/12/28 12:59:40;;;;;;;0.55;0.50;;;10.80;99.90;;;;;;5111952;27;20198;-80
2021/12/28 13:02:09;;;;;;;0.70;0.60;;;10.80;99.90;;;;;;5112339;27;20280;-80
2021/12/28 13:04:55;;;;;;;0.80;0.73;;;10.80;99.90;;;;;;5104908;28;20309;-80
2021/12/28 13:07:27;;;;;;;0.80;0.73;;;10.90;99.90;;;;;;5119880;27;20276;-80
2021/12/28 13:10:08;;;;;;;0.88;0.82;;;10.90;99.90;;;;;;5119009;27;20523;-80